createdAt,value
2019-05-29T00:01:20.382Z,98437.84
2019-05-29T00:03:48.060Z,98433.06
2019-05-29T00:06:18.471Z,98434.27
2019-05-29T00:08:47.743Z,98436.30
2019-05-29T00:11:16.904Z,98442.05
2019-05-29T00:13:46.173Z,98444.92
2019-05-29T00:16:15.386Z,98439.84
2019-05-29T00:18:44.620Z,98447.13
2019-05-29T00:21:14.710Z,98448.23
2019-05-29T00:23:43.949Z,98447.20
2019-05-29T00:26:13.158Z,98454.75
2019-05-29T00:28:42.374Z,98458.27
2019-05-29T00:31:12.213Z,98458.31
2019-05-29T00:33:41.341Z,98459.64
2019-05-29T00:36:10.524Z,98457.48
2019-05-29T00:38:39.763Z,98467.49
2019-05-29T00:41:08.994Z,98471.55
2019-05-29T00:43:38.213Z,98470.37
2019-05-29T00:46:07.391Z,98470.34
2019-05-29T00:48:36.574Z,98462.91
2019-05-29T00:51:05.774Z,98467.05
2019-05-29T00:53:34.979Z,98473.38
2019-05-29T00:56:04.218Z,98468.84
2019-05-29T00:58:33.386Z,98474.11
2019-05-29T01:01:02.585Z,98475.14
2019-05-29T01:03:31.783Z,98482.04
2019-05-29T01:06:00.981Z,98486.20
2019-05-29T01:08:30.442Z,98488.36
2019-05-29T01:10:59.619Z,98489.85
2019-05-29T01:13:28.805Z,98488.80
2019-05-29T01:15:57.979Z,98495.22
2019-05-29T01:18:27.192Z,98494.48
2019-05-29T01:20:56.586Z,98501.34
2019-05-29T01:23:26.016Z,98501.77
2019-05-29T01:25:55.305Z,98507.39
2019-05-29T01:28:24.746Z,98503.92
2019-05-29T01:30:53.973Z,98504.38
2019-05-29T01:33:24.705Z,98505.25
2019-05-29T01:35:54.179Z,98515.84
2019-05-29T01:38:23.572Z,98513.12
2019-05-29T01:40:52.803Z,98518.35
2019-05-29T01:43:21.979Z,98524.44
2019-05-29T01:45:51.199Z,98521.69
2019-05-29T01:48:21.409Z,98520.20
2019-05-29T01:50:50.892Z,98519.17
2019-05-29T01:53:20.049Z,98524.92
2019-05-29T01:55:49.214Z,98525.45
2019-05-29T01:58:20.320Z,98526.16
2019-05-29T02:00:49.482Z,98527.49
2019-05-29T02:03:19.838Z,98528.33
2019-05-29T02:05:49.081Z,98535.19
2019-05-29T02:08:18.247Z,98542.39
2019-05-29T02:10:47.434Z,98534.25
2019-05-29T02:13:17.273Z,98541.78
2019-05-29T02:15:46.729Z,98542.24
2019-05-29T02:18:16.785Z,98545.98
2019-05-29T02:20:46.074Z,98550.62
2019-05-29T02:23:15.816Z,98551.11
2019-05-29T02:25:44.927Z,98552.91
2019-05-29T02:28:14.150Z,98555.39
2019-05-29T02:30:43.341Z,98549.27
2019-05-29T02:33:12.517Z,98558.75
2019-05-29T02:35:41.810Z,98556.02
2019-05-29T02:38:11.037Z,98562.23
2019-05-29T02:40:40.185Z,98558.22
2019-05-29T02:43:09.425Z,98561.52
2019-05-29T02:45:53.449Z,98562.83
2019-05-29T02:48:09.560Z,98573.52
2019-05-29T02:50:38.776Z,98569.76
2019-05-29T02:53:08.022Z,98572.85
2019-05-29T02:55:37.210Z,98577.73
2019-05-29T02:58:06.585Z,98585.72
2019-05-29T03:01:04.244Z,98586.58
2019-05-29T03:03:39.562Z,98587.41
2019-05-29T03:06:04.359Z,98584.82
2019-05-29T03:08:34.353Z,98589.00
2019-05-29T03:11:03.823Z,98588.48
2019-05-29T03:13:33.801Z,98588.97
2019-05-29T03:16:11.312Z,98596.91
2019-05-29T03:18:34.975Z,98599.59
2019-05-29T03:21:04.602Z,98607.39
2019-05-29T03:23:35.927Z,98610.69
2019-05-29T03:26:04.941Z,98614.98
2019-05-29T03:28:35.096Z,98616.16
2019-05-29T03:31:04.674Z,98621.86
2019-05-29T03:33:43.090Z,98627.67
2019-05-29T03:36:04.714Z,98625.84
2019-05-29T03:38:34.912Z,98633.29
2019-05-29T03:41:04.486Z,98636.78
2019-05-29T03:43:36.111Z,98639.06
2019-05-29T03:46:04.634Z,98643.05
2019-05-29T03:48:34.440Z,98657.13
2019-05-29T03:51:03.838Z,98656.89
2019-05-29T03:53:33.847Z,98663.52
2019-05-29T03:56:04.343Z,98663.88
2019-05-29T03:58:35.123Z,98666.77
2019-05-29T04:01:04.826Z,98671.08
2019-05-29T04:03:35.619Z,98676.45
2019-05-29T04:06:05.675Z,98678.21
2019-05-29T04:08:35.716Z,98683.72
2019-05-29T04:11:06.025Z,98685.76
2019-05-29T04:13:36.265Z,98686.75
2019-05-29T04:16:06.345Z,98692.77
2019-05-29T04:18:37.981Z,98696.51
2019-05-29T04:21:07.291Z,98703.23
2019-05-29T04:23:38.250Z,98698.41
2019-05-29T04:26:09.439Z,98712.16
2019-05-29T04:28:39.169Z,98711.65
2019-05-29T04:31:08.406Z,98713.33
2019-05-29T04:33:38.906Z,98712.97
2019-05-29T04:36:08.285Z,98721.88
2019-05-29T04:38:39.714Z,98728.77
2019-05-29T04:41:08.514Z,98726.83
2019-05-29T04:43:39.667Z,98728.86
2019-05-29T04:46:08.617Z,98727.06
2019-05-29T04:48:40.212Z,98728.98
2019-05-29T04:51:08.966Z,98731.88
2019-05-29T04:53:39.712Z,98740.52
2019-05-29T04:56:09.273Z,98740.19
2019-05-29T04:58:39.075Z,98750.18
2019-05-29T05:01:09.071Z,98748.14
2019-05-29T05:03:39.408Z,98753.06
2019-05-29T05:06:09.045Z,98750.55
2019-05-29T05:08:39.512Z,98756.91
2019-05-29T05:11:10.917Z,98764.02
2019-05-29T05:13:40.241Z,98768.36
2019-05-29T05:16:09.643Z,98778.61
2019-05-29T05:18:40.033Z,98768.31
2019-05-29T05:21:09.445Z,98774.73
2019-05-29T05:23:38.605Z,98778.14
2019-05-29T05:26:07.841Z,98780.80
2019-05-29T05:28:38.518Z,98778.38
2019-05-29T05:31:07.912Z,98779.28
2019-05-29T05:33:37.174Z,98790.29
2019-05-29T05:36:06.407Z,98786.02
2019-05-29T05:38:36.707Z,98785.47
2019-05-29T05:41:05.996Z,98793.40
2019-05-29T05:43:35.229Z,98792.72
2019-05-29T05:46:04.422Z,98793.52
2019-05-29T05:48:33.654Z,98806.19
2019-05-29T05:51:02.869Z,98806.75
2019-05-29T05:53:33.326Z,98812.30
2019-05-29T05:56:02.557Z,98813.91
2019-05-29T05:58:31.872Z,98812.08
2019-05-29T06:01:01.070Z,98818.97
2019-05-29T06:03:30.281Z,98824.22
2019-05-29T06:06:00.714Z,98823.02
2019-05-29T06:08:30.026Z,98822.95
2019-05-29T06:10:59.327Z,98830.14
2019-05-29T06:13:28.748Z,98828.59
2019-05-29T06:15:58.013Z,98828.42
2019-05-29T06:18:27.185Z,98834.31
2019-05-29T06:20:56.381Z,98834.72
2019-05-29T06:23:25.645Z,98839.17
2019-05-29T06:25:54.842Z,98845.95
2019-05-29T06:28:24.118Z,98847.71
2019-05-29T06:30:53.368Z,98844.72
2019-05-29T06:33:22.544Z,98843.86
2019-05-29T06:35:51.735Z,98846.93
2019-05-29T06:38:21.011Z,98847.91
2019-05-29T06:40:50.222Z,98852.84
2019-05-29T06:43:23.984Z,98865.56
2019-05-29T06:45:54.969Z,98868.20
2019-05-29T06:48:41.578Z,98869.84
2019-05-29T06:50:57.586Z,98871.98
2019-05-29T06:53:27.022Z,98869.67
2019-05-29T06:55:57.533Z,98874.50
2019-05-29T06:58:27.307Z,98875.72
2019-05-29T07:00:56.604Z,98883.56
2019-05-29T07:03:25.876Z,98888.55
2019-05-29T07:05:55.074Z,98884.55
2019-05-29T07:08:38.347Z,98891.88
2019-05-29T07:10:55.249Z,98891.88
2019-05-29T07:13:24.712Z,98898.67
2019-05-29T07:15:53.931Z,98897.77
2019-05-29T07:18:23.115Z,98902.10
2019-05-29T07:20:52.388Z,98903.45
2019-05-29T07:23:21.561Z,98910.78
2019-05-29T07:25:50.784Z,98910.20
2019-05-29T07:28:20.088Z,98919.58
2019-05-29T07:31:00.356Z,98913.55
2019-05-29T07:33:20.390Z,98913.94
2019-05-29T07:35:49.672Z,98919.58
2019-05-29T07:38:18.926Z,98922.34
2019-05-29T07:40:50.112Z,98919.59
2019-05-29T07:43:19.199Z,98929.23
2019-05-29T07:45:48.474Z,98929.56
2019-05-29T07:48:17.688Z,98937.28
2019-05-29T07:50:46.967Z,98935.39
2019-05-29T07:53:16.194Z,98937.23
2019-05-29T07:55:46.667Z,98935.42
2019-05-29T07:58:15.877Z,98943.45
2019-05-29T08:01:06.944Z,98943.47
2019-05-29T08:03:16.056Z,98952.14
2019-05-29T08:05:49.207Z,98951.98
2019-05-29T08:08:16.276Z,98952.53
2019-05-29T08:10:45.600Z,98957.95
2019-05-29T08:13:14.837Z,98955.66
2019-05-29T08:15:57.499Z,98961.55
2019-05-29T08:18:15.379Z,98959.41
2019-05-29T08:20:44.560Z,98963.52
2019-05-29T08:23:13.781Z,98959.86
2019-05-29T08:25:43.437Z,98964.57
2019-05-29T08:28:12.961Z,98963.22
2019-05-29T08:30:47.384Z,98963.55
2019-05-29T08:33:13.289Z,98966.70
2019-05-29T08:35:43.063Z,98966.88
2019-05-29T08:38:12.362Z,98973.23
2019-05-29T08:40:41.654Z,98968.68
2019-05-29T08:43:10.913Z,98969.61
2019-05-29T08:45:41.559Z,98976.00
2019-05-29T08:48:10.786Z,98970.47
2019-05-29T08:50:41.476Z,98971.91
2019-05-29T08:53:11.051Z,98975.64
2019-05-29T08:55:40.298Z,98970.09
2019-05-29T08:58:09.531Z,98979.45
2019-05-29T09:00:38.707Z,98984.83
2019-05-29T09:03:07.924Z,98983.48
2019-05-29T09:05:37.223Z,98982.97
2019-05-29T09:08:06.459Z,98986.14
2019-05-29T09:10:35.657Z,98987.83
2019-05-29T09:13:05.431Z,98992.35
2019-05-29T09:15:34.613Z,98994.48
2019-05-29T09:18:04.070Z,98993.95
2019-05-29T09:20:57.968Z,98994.33
2019-05-29T09:23:04.220Z,98994.64
2019-05-29T09:25:33.388Z,99007.25
2019-05-29T09:28:02.188Z,98998.75
2019-05-29T09:30:31.401Z,99003.39
2019-05-29T09:33:00.629Z,99009.94
2019-05-29T09:35:29.844Z,99003.04
2019-05-29T09:37:59.046Z,99006.70
2019-05-29T09:40:28.239Z,99008.55
2019-05-29T09:42:57.454Z,99009.09
2019-05-29T09:45:26.676Z,99006.59
2019-05-29T09:47:55.865Z,99010.36
2019-05-29T09:50:27.473Z,99012.27
2019-05-29T09:52:57.186Z,99015.33
2019-05-29T09:55:27.372Z,99012.23
2019-05-29T09:57:56.895Z,99011.94
2019-05-29T10:00:26.279Z,99007.68
2019-05-29T10:02:55.683Z,99021.92
2019-05-29T10:05:24.895Z,99026.88
2019-05-29T10:07:55.130Z,99027.66
2019-05-29T10:10:25.083Z,99031.76
2019-05-29T10:12:55.371Z,99032.19
2019-05-29T10:15:25.349Z,99030.91
2019-05-29T10:17:55.862Z,99040.85
2019-05-29T10:20:26.990Z,99042.00
2019-05-29T10:22:57.133Z,99044.73
2019-05-29T10:25:26.375Z,99043.57
2019-05-29T10:27:55.601Z,99053.11
2019-05-29T10:30:26.361Z,99052.55
2019-05-29T10:32:55.542Z,99046.34
2019-05-29T10:35:24.763Z,99047.98
2019-05-29T10:37:53.989Z,99051.37
2019-05-29T10:40:23.271Z,99045.41
2019-05-29T10:42:53.512Z,99042.56
2019-05-29T10:45:23.015Z,99048.57
2019-05-29T10:47:52.782Z,99044.41
2019-05-29T10:50:23.180Z,99043.97
2019-05-29T10:52:52.356Z,99039.34
2019-05-29T10:55:23.310Z,99045.09
2019-05-29T10:57:53.234Z,99044.53
2019-05-29T11:00:23.023Z,99040.36
2019-05-29T11:02:53.519Z,99045.76
2019-05-29T11:05:23.207Z,99043.92
2019-05-29T11:07:52.405Z,99042.44
2019-05-29T11:10:21.662Z,99046.52
2019-05-29T11:12:50.923Z,99041.77
2019-05-29T11:15:22.064Z,99044.05
2019-05-29T11:17:51.598Z,99042.06
2019-05-29T11:20:21.083Z,99043.70
2019-05-29T11:22:51.537Z,99038.19
2019-05-29T11:25:26.497Z,99046.50
2019-05-29T11:27:53.229Z,99037.64
2019-05-29T11:30:23.430Z,99038.09
2019-05-29T11:32:54.983Z,99045.56
2019-05-29T11:35:23.595Z,99042.20
2019-05-29T11:37:52.904Z,99042.19
2019-05-29T11:40:22.232Z,99043.05
2019-05-29T11:42:52.676Z,99046.09
2019-05-29T11:45:22.248Z,99049.71
2019-05-29T11:47:53.696Z,99049.41
2019-05-29T11:50:22.822Z,99042.12
2019-05-29T11:52:52.370Z,99045.12
2019-05-29T11:55:21.683Z,99048.86
2019-05-29T11:57:51.804Z,99049.93
2019-05-29T12:00:21.771Z,99055.75
2019-05-29T12:02:51.491Z,99052.41
2019-05-29T12:05:21.241Z,99059.70
2019-05-29T12:07:51.542Z,99064.63
2019-05-29T12:10:21.416Z,99063.97
2019-05-29T12:12:51.417Z,99063.47
2019-05-29T12:15:20.864Z,99066.08
2019-05-29T12:17:55.694Z,99061.77
2019-05-29T12:20:28.220Z,99055.30
2019-05-29T12:23:16.313Z,99065.20
2019-05-29T12:25:23.202Z,99076.14
2019-05-29T12:27:52.773Z,99078.80
2019-05-29T12:30:22.163Z,99088.02
2019-05-29T12:32:52.647Z,99088.52
2019-05-29T12:35:21.995Z,99089.23
2019-05-29T12:37:51.242Z,99088.55
2019-05-29T12:40:21.442Z,99095.02
2019-05-29T12:42:50.740Z,99092.20
2019-05-29T12:45:20.757Z,99094.16
2019-05-29T12:47:49.942Z,99097.58
2019-05-29T12:50:19.658Z,99095.59
2019-05-29T12:52:49.059Z,99097.95
2019-05-29T12:55:18.340Z,99099.77
2019-05-29T12:57:47.454Z,99099.61
2019-05-29T13:00:18.929Z,99100.29
2019-05-29T13:02:48.149Z,99101.13
2019-05-29T13:05:20.398Z,99104.69
2019-05-29T13:07:48.868Z,99104.24
2019-05-29T13:10:29.858Z,99104.61
2019-05-29T13:12:51.541Z,99111.02
2019-05-29T13:15:21.410Z,99106.98
2019-05-29T13:17:54.427Z,99110.05
2019-05-29T13:20:22.521Z,99113.60
2019-05-29T13:22:51.771Z,99112.35
2019-05-29T13:25:21.171Z,99106.99
2019-05-29T13:27:50.395Z,99110.94
2019-05-29T13:30:23.059Z,99107.34
2019-05-29T13:32:52.350Z,99109.15
2019-05-29T13:35:22.584Z,99111.30
2019-05-29T13:37:51.831Z,99117.36
2019-05-29T13:40:21.071Z,99114.88
2019-05-29T13:42:50.288Z,99125.72
2019-05-29T13:45:19.765Z,99120.95
2019-05-29T13:47:48.969Z,99121.46
2019-05-29T13:50:18.746Z,99126.30
2019-05-29T13:52:47.977Z,99119.22
2019-05-29T13:55:17.503Z,99111.00
2019-05-29T13:57:46.703Z,99115.77
2019-05-29T14:00:32.263Z,99112.34
2019-05-29T14:02:47.666Z,99113.83
2019-05-29T14:05:17.728Z,99111.08
2019-05-29T14:07:47.136Z,99119.06
2019-05-29T14:10:16.629Z,99112.39
2019-05-29T14:12:45.868Z,99126.20
2019-05-29T14:15:15.715Z,99121.73
2019-05-29T14:17:45.047Z,99125.39
2019-05-29T14:20:14.512Z,99124.26
2019-05-29T14:22:43.753Z,99127.53
2019-05-29T14:25:13.960Z,99128.45
2019-05-29T14:27:43.155Z,99122.65
2019-05-29T14:30:13.972Z,99125.03
2019-05-29T14:32:43.423Z,99128.41
2019-05-29T14:35:13.552Z,99132.16
2019-05-29T14:37:42.792Z,99130.42
2019-05-29T14:40:12.464Z,99129.88
2019-05-29T14:42:42.144Z,99133.19
2019-05-29T14:45:12.701Z,99130.31
2019-05-29T14:47:41.897Z,99133.24
2019-05-29T14:50:13.462Z,99132.98
2019-05-29T14:52:42.896Z,99137.63
2019-05-29T14:55:16.077Z,99143.18
2019-05-29T14:57:43.400Z,99140.39
2019-05-29T15:00:24.100Z,99138.44
2019-05-29T15:02:44.414Z,99139.87
2019-05-29T15:05:15.325Z,99142.20
2019-05-29T15:07:44.522Z,99139.87
2019-05-29T15:10:24.957Z,99132.20
2019-05-29T15:12:45.131Z,99151.24
2019-05-29T15:15:16.427Z,99151.70
2019-05-29T15:17:45.818Z,99149.55
2019-05-29T15:20:16.839Z,99150.13
2019-05-29T15:22:46.329Z,99152.59
2019-05-29T15:25:23.429Z,99150.14
2019-05-29T15:27:46.860Z,99155.48
2019-05-29T15:30:22.340Z,99156.39
2019-05-29T15:32:47.736Z,99162.91
2019-05-29T15:35:20.131Z,99157.13
2019-05-29T15:37:49.525Z,99168.77
2019-05-29T15:40:19.111Z,99157.52
2019-05-29T15:42:48.831Z,99161.08
2019-05-29T15:45:18.448Z,99159.58
2019-05-29T15:47:48.143Z,99156.17
2019-05-29T15:50:18.432Z,99153.23
2019-05-29T15:52:49.574Z,99155.44
2019-05-29T15:55:29.536Z,99154.22
2019-05-29T15:57:50.045Z,99161.92
2019-05-29T16:00:19.521Z,99166.06
2019-05-29T16:02:49.781Z,99164.19
2019-05-29T16:05:19.609Z,99176.71
2019-05-29T16:07:48.875Z,99177.66
2019-05-29T16:10:20.970Z,99171.53
2019-05-29T16:12:50.404Z,99175.91
2019-05-29T16:15:20.801Z,99170.16
2019-05-29T16:17:50.045Z,99168.40
2019-05-29T16:20:19.712Z,99175.09
2019-05-29T16:22:49.070Z,99179.18
2019-05-29T16:25:19.180Z,99182.12
2019-05-29T16:27:48.444Z,99179.36
2019-05-29T16:30:18.178Z,99185.64
2019-05-29T16:32:48.138Z,99184.34
2019-05-29T16:35:19.423Z,99185.22
2019-05-29T16:37:49.165Z,99188.23
2019-05-29T16:40:19.966Z,99187.91
2019-05-29T16:42:49.657Z,99194.14
2019-05-29T16:45:20.451Z,99199.09
2019-05-29T16:47:50.005Z,99203.95
2019-05-29T16:50:21.128Z,99209.16
2019-05-29T16:52:50.478Z,99206.77
2019-05-29T16:55:20.945Z,99216.48
2019-05-29T16:57:50.350Z,99219.82
2019-05-29T17:00:21.502Z,99224.89
2019-05-29T17:02:51.525Z,99228.52
2019-05-29T17:05:22.137Z,99223.71
2019-05-29T17:07:51.750Z,99225.77
2019-05-29T17:10:25.452Z,99229.38
2019-05-29T17:12:54.881Z,99224.92
2019-05-29T17:15:24.761Z,99224.78
2019-05-29T17:17:54.462Z,99225.19
2019-05-29T17:20:38.584Z,99228.84
2019-05-29T17:23:07.998Z,99225.11
2019-05-29T17:25:37.188Z,99227.19
2019-05-29T17:28:06.595Z,99225.89
2019-05-29T17:30:36.085Z,99220.19
2019-05-29T17:33:06.123Z,99218.70
2019-05-29T17:35:35.516Z,99225.25
2019-05-29T17:38:04.776Z,99225.59
2019-05-29T17:40:33.964Z,99226.62
2019-05-29T17:43:03.458Z,99217.36
2019-05-29T17:45:32.743Z,99217.25
2019-05-29T17:48:02.056Z,99216.32
2019-05-29T17:50:31.186Z,99216.55
2019-05-29T17:53:00.457Z,99222.86
2019-05-29T17:55:29.677Z,99221.98
2019-05-29T17:57:58.928Z,99229.89
2019-05-29T18:00:28.170Z,99234.97
2019-05-29T18:02:57.382Z,99239.54
2019-05-29T18:05:26.746Z,99235.48
2019-05-29T18:07:56.084Z,99241.88
2019-05-29T18:10:25.779Z,99243.44
2019-05-29T18:12:54.980Z,99244.41
2019-05-29T18:15:25.546Z,99250.09
2019-05-29T18:17:55.244Z,99247.69
2019-05-29T18:20:25.704Z,99255.16
2019-05-29T18:22:55.090Z,99258.10
2019-05-29T18:25:25.947Z,99257.63
2019-05-29T18:27:55.324Z,99261.48
2019-05-29T18:30:24.767Z,99261.45
2019-05-29T18:32:54.239Z,99262.89
2019-05-29T18:35:23.564Z,99265.97
2019-05-29T18:37:52.852Z,99265.97
2019-05-29T18:40:22.409Z,99263.19
2019-05-29T18:42:51.782Z,99255.97
2019-05-29T18:45:23.450Z,99264.11
2019-05-29T18:47:52.367Z,99264.25
2019-05-29T18:50:21.920Z,99258.28
2019-05-29T18:52:51.293Z,99264.69
2019-05-29T18:55:20.868Z,99274.08
2019-05-29T18:57:50.254Z,99272.56
2019-05-29T19:00:21.261Z,99272.89
2019-05-29T19:02:50.783Z,99280.41
2019-05-29T19:05:21.410Z,99281.62
2019-05-29T19:07:50.856Z,99282.77
2019-05-29T19:10:21.598Z,99293.79
2019-05-29T19:12:50.959Z,99293.56
2019-05-29T19:15:21.868Z,99303.50
2019-05-29T19:17:51.174Z,99295.33
2019-05-29T19:20:22.111Z,99302.94
2019-05-29T19:22:51.432Z,99304.68
2019-05-29T19:25:20.829Z,99311.67
2019-05-29T19:27:50.070Z,99312.36
2019-05-29T19:30:20.393Z,99318.42
2019-05-29T19:32:49.621Z,99323.88
2019-05-29T19:35:19.904Z,99328.48
2019-05-29T19:37:49.113Z,99337.16
2019-05-29T19:40:19.260Z,99333.95
2019-05-29T19:42:48.507Z,99344.75
2019-05-29T19:45:18.184Z,99348.54
2019-05-29T19:47:47.631Z,99353.34
2019-05-29T19:50:16.966Z,99356.68
2019-05-29T19:52:46.317Z,99358.18
2019-05-29T19:55:16.708Z,99368.06
2019-05-29T19:57:55.642Z,99365.84
2019-05-29T20:00:18.398Z,99381.14
2019-05-29T20:02:47.844Z,99382.70
2019-05-29T20:05:17.461Z,99386.23
2019-05-29T20:07:46.692Z,99392.97
2019-05-29T20:10:16.250Z,99392.73
2019-05-29T20:12:45.667Z,99401.77
2019-05-29T20:15:15.778Z,99400.70
2019-05-29T20:17:45.119Z,99404.28
2019-05-29T20:20:14.468Z,99410.77
2019-05-29T20:22:43.656Z,99412.70
2019-05-29T20:25:14.015Z,99412.98
2019-05-29T20:27:43.344Z,99416.03
2019-05-29T20:30:17.573Z,99418.97
2019-05-29T20:32:46.865Z,99415.22
2019-05-29T20:35:16.533Z,99422.67
2019-05-29T20:37:45.945Z,99422.61
2019-05-29T20:40:15.516Z,99426.66
2019-05-29T20:42:44.803Z,99436.31
2019-05-29T20:45:14.156Z,99433.11
2019-05-29T20:47:43.563Z,99437.75
2019-05-29T20:50:13.735Z,99443.13
2019-05-29T20:52:43.121Z,99439.23
2019-05-29T20:55:12.487Z,99437.59
2019-05-29T20:57:42.211Z,99448.06
2019-05-29T21:00:12.899Z,99444.73
2019-05-29T21:02:42.693Z,99449.70
2019-05-29T21:05:13.475Z,99438.37
2019-05-29T21:07:42.984Z,99440.70
2019-05-29T21:10:13.378Z,99450.30
2019-05-29T21:12:46.104Z,99446.44
2019-05-29T21:15:14.321Z,99447.33
2019-05-29T21:17:44.084Z,99443.69
2019-05-29T21:20:13.369Z,99443.83
2019-05-29T21:22:43.004Z,99449.99
2019-05-29T21:25:17.573Z,99445.05
2019-05-29T21:27:47.062Z,99447.70
2019-05-29T21:30:14.795Z,99454.00
2019-05-29T21:32:44.361Z,99451.52
2019-05-29T21:35:13.721Z,99448.17
2019-05-29T21:37:44.311Z,99451.06
2019-05-29T21:40:14.214Z,99456.53
2019-05-29T21:42:44.769Z,99449.64
2019-05-29T21:45:14.188Z,99454.02
2019-05-29T21:47:43.649Z,99460.63
2019-05-29T21:50:13.197Z,99465.15
2019-05-29T21:52:43.635Z,99462.31
2019-05-29T21:55:13.379Z,99468.45
2019-05-29T21:57:45.568Z,99458.05
2019-05-29T22:00:18.005Z,99466.76
2019-05-29T22:02:48.537Z,99459.94
2019-05-29T22:05:18.347Z,99461.83
2019-05-29T22:07:48.862Z,99456.34
2019-05-29T22:10:18.299Z,99459.70
2019-05-29T22:12:47.531Z,99460.14
2019-05-29T22:15:16.874Z,99466.14
2019-05-29T22:17:46.110Z,99465.92
2019-05-29T22:20:15.529Z,99469.31
2019-05-29T22:22:44.863Z,99464.62
2019-05-29T22:25:14.520Z,99469.48
2019-05-29T22:27:43.742Z,99466.72
2019-05-29T22:30:15.105Z,99468.13
2019-05-29T22:32:44.536Z,99465.45
2019-05-29T22:35:14.075Z,99470.86
2019-05-29T22:37:43.598Z,99467.16
2019-05-29T22:40:13.656Z,99474.94
2019-05-29T22:42:43.012Z,99472.14
2019-05-29T22:45:12.602Z,99480.59
2019-05-29T22:47:41.805Z,99475.87
2019-05-29T22:50:11.531Z,99476.09
2019-05-29T22:52:40.891Z,99477.66
2019-05-29T22:55:10.289Z,99482.03
2019-05-29T22:57:39.547Z,99490.59
2019-05-29T23:00:09.839Z,99487.44
2019-05-29T23:02:38.119Z,99487.53
2019-05-29T23:05:06.405Z,99491.62
2019-05-29T23:07:35.644Z,99490.73
2019-05-29T23:10:06.796Z,99488.09
2019-05-29T23:12:36.378Z,99486.67
2019-05-29T23:15:07.696Z,99476.54
2019-05-29T23:17:36.951Z,99478.72
2019-05-29T23:20:06.861Z,99476.18
2019-05-29T23:22:36.272Z,99482.52
2019-05-29T23:25:05.951Z,99478.74
2019-05-29T23:27:35.473Z,99482.04
2019-05-29T23:30:05.403Z,99478.15
2019-05-29T23:32:34.588Z,99476.72
2019-05-29T23:35:03.843Z,99479.48
2019-05-29T23:37:33.578Z,99480.95
2019-05-29T23:40:03.509Z,99477.55
2019-05-29T23:42:33.036Z,99484.48
2019-05-29T23:45:03.655Z,99489.99
2019-05-29T23:47:32.954Z,99483.23
2019-05-29T23:50:03.189Z,99483.39
2019-05-29T23:52:33.340Z,99483.33
2019-05-29T23:55:03.984Z,99479.44
2019-05-29T23:57:33.347Z,99486.45
